createdAt,value
2022-10-19T00:00:29.599Z,86.7527
2022-10-19T00:05:31.214Z,81.18305
2022-10-19T00:10:32.837Z,69.0112
2022-10-19T00:15:34.492Z,56.0464
2022-10-19T00:20:36.105Z,53.40895
2022-10-19T00:25:37.718Z,42.39895
2022-10-19T00:30:39.359Z,37.99115
2022-10-19T00:35:40.990Z,28.5119
2022-10-19T00:40:42.589Z,23.31115
2022-10-19T00:45:44.186Z,16.1556
2022-10-19T00:50:45.803Z,12.1167
2022-10-19T00:55:47.393Z,8.26225
2022-10-19T01:00:49.020Z,5.56965
2022-10-19T01:05:50.698Z,2.01475
2022-10-19T01:10:52.324Z,0.88885
2022-10-19T01:20:55.589Z,0
2022-10-19T01:25:57.171Z,0
2022-10-19T01:30:58.797Z,0
2022-10-19T01:36:00.405Z,0
2022-10-19T01:41:01.988Z,0
2022-10-19T01:46:03.623Z,0
2022-10-19T01:51:05.197Z,0
2022-10-19T01:56:06.792Z,0
2022-10-19T02:01:08.484Z,0
2022-10-19T02:06:10.184Z,0
2022-10-19T02:11:11.813Z,0
2022-10-19T02:16:13.393Z,0
2022-10-19T02:21:15.024Z,0
2022-10-19T02:26:16.644Z,0
2022-10-19T02:31:18.250Z,0
2022-10-19T02:36:19.866Z,0
2022-10-19T02:41:21.505Z,0
2022-10-19T02:46:23.112Z,0
2022-10-19T02:51:24.704Z,0
2022-10-19T02:56:26.334Z,0
2022-10-19T03:01:27.948Z,0
2022-10-19T03:06:29.547Z,0
2022-10-19T03:11:31.141Z,0
2022-10-19T03:16:32.741Z,0
2022-10-19T03:21:34.466Z,0
2022-10-19T03:26:36.061Z,0
2022-10-19T03:31:37.685Z,0
2022-10-19T03:36:39.540Z,0
2022-10-19T03:41:41.115Z,0
2022-10-19T03:46:43.035Z,0
2022-10-19T03:51:44.654Z,0
2022-10-19T03:56:46.230Z,0
2022-10-19T04:01:48.005Z,0
2022-10-19T04:06:49.624Z,0
2022-10-19T04:11:51.237Z,0
2022-10-19T04:16:52.851Z,0
2022-10-19T04:21:54.514Z,0
2022-10-19T04:26:56.128Z,0
2022-10-19T04:31:57.928Z,0
2022-10-19T04:36:59.695Z,0
2022-10-19T04:42:01.358Z,0
2022-10-19T04:47:02.995Z,0
2022-10-19T04:52:04.661Z,0
2022-10-19T04:57:06.325Z,0
2022-10-19T05:02:07.919Z,0
2022-10-19T05:07:09.525Z,0
2022-10-19T05:12:11.300Z,0
2022-10-19T05:17:13.059Z,0
2022-10-19T05:22:14.700Z,0
2022-10-19T05:27:16.345Z,0
2022-10-19T05:32:17.953Z,0
2022-10-19T05:37:19.653Z,0
2022-10-19T05:42:21.327Z,0
2022-10-19T05:47:26.175Z,0
2022-10-19T05:52:31.085Z,0
2022-10-19T05:57:33.041Z,0
2022-10-19T06:02:34.914Z,0
2022-10-19T06:07:36.983Z,0
2022-10-19T06:12:38.713Z,0
2022-10-19T06:17:40.333Z,0
2022-10-19T06:22:41.958Z,0
2022-10-19T06:27:43.594Z,0
2022-10-19T06:32:45.294Z,0
2022-10-19T06:37:46.952Z,0
2022-10-19T06:42:48.517Z,0
2022-10-19T06:47:50.106Z,0
2022-10-19T06:52:51.747Z,0
2022-10-19T06:57:53.265Z,0
2022-10-19T07:02:54.927Z,0
2022-10-19T07:07:56.655Z,0
2022-10-19T07:12:58.379Z,0
2022-10-19T07:18:00.083Z,0
2022-10-19T07:23:01.722Z,0
2022-10-19T07:28:03.344Z,0
2022-10-19T07:33:04.949Z,0
2022-10-19T07:38:06.579Z,0
2022-10-19T07:43:08.192Z,0
2022-10-19T07:48:09.805Z,0
2022-10-19T07:53:11.400Z,0
2022-10-19T07:58:13.011Z,0
2022-10-19T08:04:31.661Z,0
2022-10-19T08:09:53.292Z,0
2022-10-19T08:14:55.668Z,0
2022-10-19T08:19:18.409Z,0
2022-10-19T08:24:20.037Z,0
2022-10-19T08:29:21.636Z,0
2022-10-19T08:34:23.240Z,0
2022-10-19T08:39:24.862Z,0
2022-10-19T08:44:26.500Z,0
2022-10-19T08:49:28.090Z,0
2022-10-19T08:54:29.948Z,0
2022-10-19T08:59:31.590Z,0
2022-10-19T09:04:33.210Z,0
2022-10-19T09:09:34.903Z,0
2022-10-19T09:14:36.535Z,0
2022-10-19T09:19:38.120Z,0
2022-10-19T09:24:39.705Z,0
2022-10-19T09:29:41.235Z,0
2022-10-19T09:34:42.812Z,0
2022-10-19T09:45:09.745Z,0
2022-10-19T09:50:11.351Z,0
2022-10-19T09:55:13.085Z,0
2022-10-19T10:00:14.745Z,0
2022-10-19T10:05:16.462Z,0
2022-10-19T10:10:18.299Z,0
2022-10-19T10:15:20.479Z,0
2022-10-19T10:20:22.285Z,0
2022-10-19T10:25:24.028Z,0
2022-10-19T10:30:25.812Z,0
2022-10-19T10:35:27.473Z,0
2022-10-19T10:40:29.182Z,0
2022-10-19T10:45:31.151Z,0
2022-10-19T10:50:32.745Z,0
2022-10-19T10:55:34.538Z,0
2022-10-19T11:00:36.330Z,0
2022-10-19T11:05:38.056Z,0
2022-10-19T11:10:39.911Z,0
2022-10-19T11:15:41.602Z,0
2022-10-19T11:20:43.361Z,0
2022-10-19T11:25:45.025Z,0
2022-10-19T11:30:49.874Z,0
2022-10-19T11:35:52.313Z,0
2022-10-19T11:46:01.551Z,0
2022-10-19T11:51:16.897Z,0
2022-10-19T11:56:25.230Z,0
2022-10-19T12:01:36.726Z,0
2022-10-19T12:06:38.527Z,0
2022-10-19T12:11:40.345Z,0
2022-10-19T12:16:42.016Z,0
2022-10-19T12:21:43.606Z,0
2022-10-19T12:26:45.433Z,0
2022-10-19T12:31:47.144Z,0
2022-10-19T12:36:48.785Z,0
2022-10-19T12:41:50.469Z,0
2022-10-19T12:46:53.851Z,0
2022-10-19T12:51:57.241Z,0
2022-10-19T12:56:58.916Z,0
2022-10-19T13:02:00.678Z,0
2022-10-19T13:07:02.309Z,0
2022-10-19T13:12:04.195Z,0
2022-10-19T13:17:06.186Z,0
2022-10-19T13:22:08.061Z,0
2022-10-19T13:27:09.797Z,0
2022-10-19T13:32:11.609Z,0
2022-10-19T13:37:13.327Z,0
2022-10-19T13:42:14.940Z,0
2022-10-19T13:47:16.690Z,0
2022-10-19T13:52:18.339Z,0
2022-10-19T13:57:20.013Z,0.4148
2022-10-19T14:02:21.858Z,0.88885
2022-10-19T14:07:23.708Z,1.71845
2022-10-19T14:12:25.531Z,3.24595
2022-10-19T14:17:27.427Z,7.89335
2022-10-19T14:22:29.016Z,9.00005
2022-10-19T14:27:30.671Z,10.6601
2022-10-19T14:32:32.468Z,13.3329
2022-10-19T14:37:34.424Z,19.8446
2022-10-19T14:42:36.681Z,27.1846
2022-10-19T14:47:38.702Z,31.90615
2022-10-19T14:52:40.375Z,38.02915
2022-10-19T14:57:42.139Z,41.20095
2022-10-19T15:02:43.991Z,34.304
2022-10-19T15:07:45.598Z,35.37665
2022-10-19T15:12:47.226Z,44.5952
2022-10-19T15:17:49.101Z,66.56005
2022-10-19T15:22:50.695Z,82.48615
2022-10-19T15:27:52.640Z,116.49965
2022-10-19T15:32:54.817Z,115.72945
2022-10-19T15:37:56.648Z,161.53485
2022-10-19T15:42:58.387Z,141.2101
2022-10-19T15:48:00.105Z,150.27395
2022-10-19T15:53:01.938Z,115.0477
2022-10-19T15:58:03.564Z,108.79645
2022-10-19T16:03:05.333Z,136.4402
2022-10-19T16:08:10.096Z,128.583
2022-10-19T16:13:13.983Z,134.4854
2022-10-19T16:18:15.583Z,164.8228
2022-10-19T16:23:17.464Z,218.45605
2022-10-19T16:28:19.624Z,231.97605
2022-10-19T16:33:21.268Z,397.91215
2022-10-19T16:38:23.013Z,373.73515
2022-10-19T16:43:24.839Z,472.28
2022-10-19T16:48:26.823Z,480.39835
2022-10-19T16:53:28.499Z,450.11785
2022-10-19T16:58:30.130Z,388.5494
2022-10-19T17:03:31.843Z,373.8534
2022-10-19T17:08:36.823Z,366.50545
2022-10-19T17:13:39.044Z,363.54265
2022-10-19T17:18:40.777Z,385.94185
2022-10-19T17:23:42.499Z,401.2302
2022-10-19T17:28:44.446Z,402.4745
2022-10-19T17:33:46.036Z,407.6891
2022-10-19T17:38:47.675Z,413.25935
2022-10-19T17:43:49.387Z,425.2885
2022-10-19T17:48:51.180Z,398.50445
2022-10-19T17:53:52.852Z,374.03125
2022-10-19T17:58:54.500Z,313.8856
2022-10-19T18:03:56.104Z,435.36225
2022-10-19T18:08:57.919Z,447.51
2022-10-19T18:13:59.752Z,464.57635
2022-10-19T18:19:01.377Z,458.8288
2022-10-19T18:24:02.979Z,448.28115
2022-10-19T18:29:04.744Z,445.496
2022-10-19T18:34:06.439Z,468.6061
2022-10-19T18:39:08.177Z,459.30265
2022-10-19T18:44:09.793Z,454.85815
2022-10-19T18:49:11.388Z,410.11915
2022-10-19T18:54:13.060Z,436.96255
2022-10-19T18:59:14.954Z,443.30285
2022-10-19T19:04:17.142Z,447.5694
2022-10-19T19:09:18.945Z,466.5315
2022-10-19T19:14:20.975Z,470.67945
2022-10-19T19:19:23.096Z,482.35315
2022-10-19T19:24:25.184Z,479.6274
2022-10-19T19:29:27.257Z,504.9895
2022-10-19T19:34:29.319Z,541.4329
2022-10-19T19:39:31.315Z,545.99575
2022-10-19T19:44:33.380Z,540.78115
2022-10-19T19:49:35.483Z,568.92865
2022-10-19T19:54:37.261Z,579.06175
2022-10-19T19:59:39.257Z,581.847
2022-10-19T20:04:41.937Z,408.6385
2022-10-19T20:09:43.661Z,502.26475
2022-10-19T20:14:45.342Z,495.8058
2022-10-19T20:19:47.043Z,572.5437
2022-10-19T20:24:48.722Z,572.72145
2022-10-19T20:28:08.442Z,559.6255
2022-10-19T20:33:10.775Z,539.83365
2022-10-19T20:38:12.888Z,503.33125
2022-10-19T20:43:14.679Z,478.67975
2022-10-19T20:48:16.755Z,443.1844
2022-10-19T20:53:18.448Z,432.1031
2022-10-19T20:58:20.569Z,434.94755
2022-10-19T21:03:22.337Z,429.9698
2022-10-19T21:08:24.035Z,410.23735
2022-10-19T21:13:26.000Z,420.9037
2022-10-19T21:18:28.359Z,390.74195
2022-10-19T21:23:30.086Z,378.5944
2022-10-19T21:28:32.019Z,411.6599
2022-10-19T21:33:34.010Z,424.578
2022-10-19T21:38:36.042Z,412.84515
2022-10-19T21:43:38.105Z,383.9276
2022-10-19T21:48:40.183Z,369.7651
2022-10-19T21:53:42.295Z,370.0021
2022-10-19T21:58:44.292Z,383.51265
2022-10-19T22:03:46.196Z,374.7425
2022-10-19T22:08:49.140Z,377.2905
2022-10-19T22:13:50.930Z,379.9569
2022-10-19T22:18:52.532Z,389.20095
2022-10-19T22:23:54.199Z,394.8897
2022-10-19T22:28:56.130Z,394.1787
2022-10-19T22:33:57.932Z,387.5418
2022-10-19T22:38:59.857Z,234.18485
2022-10-19T22:44:01.607Z,241.65125
2022-10-19T22:49:03.349Z,357.2022
2022-10-19T22:54:05.057Z,348.25435
2022-10-19T22:59:06.722Z,302.50785
2022-10-19T23:04:08.375Z,315.07025
2022-10-19T23:09:10.300Z,196.6154
2022-10-19T23:14:12.397Z,137.93295
2022-10-19T23:19:14.583Z,135.2385
2022-10-19T23:24:16.264Z,128.45185
2022-10-19T23:29:17.870Z,103.48065
2022-10-19T23:34:19.946Z,85.86845
2022-10-19T23:39:21.643Z,75.85485
2022-10-19T23:44:23.258Z,67.40815
2022-10-19T23:49:26.001Z,71.31775
2022-10-19T23:54:27.622Z,65.7481
2022-10-19T23:59:29.474Z,56.4343
